Time;durP1;ratioP1;P1;durP2;ratioP2;P2;SDS_P1;SDS_P2;PMS_P1;PMS_P2;Temp;Humidity;BMP_temperature;BMP_pressure;BME280_temperature;BME280_humidity;BME280_pressure;Samples;Min_cycle;Max_cycle;Signal;HPM_P1;HPM_P2
2023/06/13 05:35:37;;;;;;;7.95;5.20;;;18.50;79.40;;;;;;5121910;27;20809;-76
2023/06/13 05:38:09;;;;;;;6.72;4.68;;;18.60;78.00;;;;;;5113548;28;20093;-77
2023/06/13 05:40:38;;;;;;;7.18;4.80;;;18.60;78.00;;;;;;5113084;28;20032;-77
2023/06/13 05:43:04;;;;;;;6.57;4.55;;;18.70;78.00;;;;;;5112915;28;20502;-77
2023/06/13 05:45:30;;;;;;;8.57;4.65;;;18.70;78.10;;;;;;5112695;28;20360;-76
2023/06/13 05:47:56;;;;;;;8.18;4.28;;;18.80;78.20;;;;;;5112787;28;20107;-76
2023/06/13 05:50:22;;;;;;;5.70;4.45;;;18.80;78.40;;;;;;5113301;28;20035;-77
2023/06/13 05:52:48;;;;;;;6.75;4.60;;;18.90;78.40;;;;;;5113265;28;20033;-75
2023/06/13 05:55:14;;;;;;;6.38;4.68;;;18.90;78.50;;;;;;5112679;28;20460;-74
2023/06/13 05:57:41;;;;;;;6.10;4.63;;;18.90;78.60;;;;;;5112847;28;20024;-74
2023/06/13 06:00:12;;;;;;;7.18;4.55;;;18.90;78.60;;;;;;5112547;28;20468;-73
2023/06/13 06:02:41;;;;;;;6.07;4.28;;;19.00;78.60;;;;;;5112728;28;20107;-72
2023/06/13 06:05:08;;;;;;;5.70;4.25;;;19.00;78.60;;;;;;5112913;28;20024;-72
2023/06/13 06:07:35;;;;;;;7.43;4.65;;;19.10;78.60;;;;;;5112695;28;20027;-74
2023/06/13 06:10:05;;;;;;;7.32;5.00;;;19.10;78.60;;;;;;5112383;28;20023;-72
2023/06/13 06:12:32;;;;;;;6.45;4.97;;;19.20;78.50;;;;;;5112863;28;20228;-70
2023/06/13 06:14:58;;;;;;;7.40;4.97;;;19.30;78.60;;;;;;5112384;28;20035;-71
2023/06/13 06:17:24;;;;;;;8.82;5.72;;;19.30;78.50;;;;;;5112491;28;20028;-72
2023/06/13 06:19:50;;;;;;;8.10;5.35;;;19.40;78.50;;;;;;5112197;28;20103;-71
2023/06/13 06:22:16;;;;;;;8.68;5.28;;;19.50;78.50;;;;;;5112204;28;20433;-72
2023/06/13 06:24:42;;;;;;;6.18;4.50;;;19.50;78.20;;;;;;5112536;28;20111;-72
2023/06/13 06:27:08;;;;;;;6.88;4.72;;;19.60;78.30;;;;;;5094227;28;20498;-72
2023/06/13 06:29:34;;;;;;;7.05;4.90;;;19.60;78.30;;;;;;5094491;28;20050;-72
2023/06/13 06:32:01;;;;;;;6.70;5.07;;;19.60;78.20;;;;;;5112212;28;20332;-72
2023/06/13 06:34:27;;;;;;;7.07;4.82;;;19.60;78.30;;;;;;5101080;28;20048;-72
2023/06/13 06:36:53;;;;;;;6.93;4.47;;;19.60;78.10;;;;;;5092001;28;20031;-72
2023/06/13 06:39:19;;;;;;;6.10;4.47;;;19.70;77.90;;;;;;5091771;28;20502;-73
2023/06/13 06:41:45;;;;;;;5.07;3.90;;;19.60;77.80;;;;;;5091439;28;20071;-71
2023/06/13 06:44:11;;;;;;;7.82;4.57;;;19.70;77.80;;;;;;5091568;28;20024;-70
2023/06/13 06:46:37;;;;;;;5.00;3.90;;;19.70;77.80;;;;;;5079288;28;20135;-72
2023/06/13 06:49:03;;;;;;;7.50;4.18;;;19.60;77.70;;;;;;5078030;28;20024;-71
2023/06/13 06:51:29;;;;;;;6.18;4.07;;;19.70;77.70;;;;;;5077941;28;20020;-72
2023/06/13 06:53:56;;;;;;;5.90;4.22;;;19.60;77.70;;;;;;5077491;28;20035;-72
2023/06/13 06:56:23;;;;;;;6.65;4.57;;;19.70;77.60;;;;;;5060435;28;20155;-72
2023/06/13 06:58:48;;;;;;;5.35;3.97;;;19.70;77.70;;;;;;5077582;28;20028;-71
2023/06/13 07:01:15;;;;;;;6.47;4.53;;;19.70;77.60;;;;;;5078017;28;20032;-75
2023/06/13 07:03:41;;;;;;;6.13;4.28;;;19.70;77.60;;;;;;5077436;28;20438;-73
2023/06/13 07:06:07;;;;;;;6.85;4.10;;;19.70;77.50;;;;;;5077423;28;20514;-74
2023/06/13 07:08:33;;;;;;;6.70;4.88;;;19.80;77.50;;;;;;5077656;28;20055;-73
2023/06/13 07:11:01;;;;;;;6.03;4.03;;;19.80;77.50;;;;;;5077417;28;20095;-74
2023/06/13 07:13:26;;;;;;;6.03;4.13;;;19.90;77.40;;;;;;5077515;28;20020;-74
2023/06/13 07:15:52;;;;;;;6.30;4.43;;;19.90;77.20;;;;;;5077206;28;20075;-75
2023/06/13 07:18:18;;;;;;;7.18;4.55;;;20.00;77.20;;;;;;5077237;28;20027;-75
2023/06/13 07:20:45;;;;;;;6.22;4.40;;;20.00;77.10;;;;;;5077476;28;20446;-75
2023/06/13 07:23:12;;;;;;;8.25;4.70;;;20.10;77.00;;;;;;5077092;28;20021;-76
2023/06/13 07:25:40;;;;;;;8.05;4.78;;;20.20;77.00;;;;;;5077292;28;20013;-75
2023/06/13 07:28:07;;;;;;;7.82;4.68;;;20.20;76.90;;;;;;5076944;28;20103;-75
2023/06/13 07:30:33;;;;;;;6.43;4.35;;;20.30;76.90;;;;;;5077076;28;20025;-75
2023/06/13 07:32:59;;;;;;;8.70;5.05;;;20.30;76.60;;;;;;5077446;28;20444;-74
2023/06/13 07:35:25;;;;;;;6.80;4.63;;;20.40;76.60;;;;;;5076565;28;20083;-75
2023/06/13 07:37:53;;;;;;;9.07;5.32;;;20.40;76.60;;;;;;5077136;28;20025;-75
2023/06/13 07:40:21;;;;;;;8.25;5.10;;;20.40;76.40;;;;;;5076715;28;20029;-75
2023/06/13 07:42:48;;;;;;;10.02;5.97;;;20.40;76.40;;;;;;5076726;28;20335;-74
2023/06/13 07:45:14;;;;;;;9.48;4.97;;;20.40;76.30;;;;;;5076682;28;20112;-75
2023/06/13 07:47:40;;;;;;;7.20;5.18;;;20.40;76.30;;;;;;5076647;28;20047;-75
2023/06/13 07:50:07;;;;;;;7.72;4.85;;;20.40;76.30;;;;;;5076597;28;20040;-74
2023/06/13 07:52:33;;;;;;;8.73;5.50;;;20.50;76.30;;;;;;5076584;28;20028;-75
2023/06/13 07:55:00;;;;;;;8.05;5.13;;;20.50;76.20;;;;;;5076398;28;20033;-75
2023/06/13 07:57:25;;;;;;;8.48;5.32;;;20.50;76.20;;;;;;5075487;28;20020;-75
2023/06/13 07:59:54;;;;;;;8.18;5.30;;;20.50;76.20;;;;;;5076678;28;20017;-75
2023/06/13 08:02:20;;;;;;;10.25;5.47;;;20.60;76.30;;;;;;5076703;28;20029;-75
2023/06/13 08:04:46;;;;;;;6.30;4.70;;;20.60;76.30;;;;;;5076503;28;20122;-75
2023/06/13 08:07:11;;;;;;;6.65;4.13;;;20.70;76.20;;;;;;5076325;28;20032;-75
2023/06/13 08:09:37;;;;;;;6.75;4.63;;;20.80;76.10;;;;;;5076507;28;20040;-75
2023/06/13 08:12:04;;;;;;;8.10;4.60;;;20.90;76.00;;;;;;5076198;28;20021;-75
2023/06/13 08:14:30;;;;;;;6.38;4.35;;;21.00;75.90;;;;;;5076290;28;20031;-75
2023/06/13 08:16:56;;;;;;;6.80;4.57;;;21.00;75.70;;;;;;5076056;28;20021;-75
2023/06/13 08:19:22;;;;;;;5.82;3.85;;;21.10;75.60;;;;;;5076282;28;20032;-75
2023/06/13 08:21:48;;;;;;;6.38;3.97;;;21.20;75.50;;;;;;5076507;28;20326;-75
2023/06/13 08:24:14;;;;;;;8.82;4.80;;;21.20;75.30;;;;;;5076718;28;20052;-75
2023/06/13 08:26:40;;;;;;;6.55;4.22;;;21.30;75.30;;;;;;5076072;28;20035;-75
2023/06/13 08:29:06;;;;;;;7.35;4.72;;;21.40;74.90;;;;;;5076129;28;20025;-75
2023/06/13 08:31:32;;;;;;;6.47;4.28;;;21.40;74.50;;;;;;5075872;28;20440;-75
2023/06/13 08:33:59;;;;;;;8.35;4.57;;;21.40;74.40;;;;;;5075469;28;20045;-75
2023/06/13 08:36:26;;;;;;;7.53;4.40;;;21.40;74.30;;;;;;5075750;28;20024;-75
2023/06/13 08:38:55;;;;;;;6.53;4.40;;;21.40;74.00;;;;;;5075659;28;20024;-75
2023/06/13 08:41:22;;;;;;;6.60;4.43;;;21.40;72.80;;;;;;5075662;28;20031;-75
2023/06/13 08:43:48;;;;;;;6.63;4.50;;;21.40;72.90;;;;;;5075575;28;20133;-75
2023/06/13 08:46:14;;;;;;;6.65;4.28;;;21.40;72.70;;;;;;5075749;28;20048;-75
2023/06/13 08:48:41;;;;;;;5.95;3.90;;;21.40;71.50;;;;;;5075800;28;20070;-76
2023/06/13 08:51:13;;;;;;;9.70;4.40;;;21.40;69.80;;;;;;5075529;28;20025;-76
2023/06/13 08:53:47;;;;;;;6.72;3.95;;;21.30;68.10;;;;;;5075694;28;20028;-75
2023/06/13 08:56:13;;;;;;;5.40;3.92;;;21.20;67.50;;;;;;5075685;28;20028;-75
2023/06/13 08:58:43;;;;;;;8.25;4.38;;;21.20;65.10;;;;;;5075895;28;20036;-75
2023/06/13 09:01:10;;;;;;;6.60;3.92;;;21.10;65.90;;;;;;5075325;28;20358;-76
2023/06/13 09:03:38;;;;;;;9.68;3.53;;;21.10;67.40;;;;;;5075560;28;20074;-76
2023/06/13 09:06:05;;;;;;;8.15;4.43;;;21.10;67.00;;;;;;5075341;28;20054;-75
2023/06/13 09:08:32;;;;;;;7.20;4.22;;;21.10;65.30;;;;;;5075250;28;20036;-76
2023/06/13 09:11:00;;;;;;;5.13;3.83;;;21.10;64.30;;;;;;5075148;28;20103;-76
2023/06/13 09:13:28;;;;;;;5.82;3.95;;;21.10;64.90;;;;;;5075350;28;20043;-75
2023/06/13 09:15:55;;;;;;;4.40;3.35;;;21.10;63.60;;;;;;5075386;28;20016;-75
2023/06/13 09:18:23;;;;;;;6.30;4.05;;;21.10;64.00;;;;;;5075613;28;20024;-75
2023/06/13 09:20:49;;;;;;;5.60;3.83;;;21.20;65.20;;;;;;5075355;28;20384;-75
2023/06/13 09:23:17;;;;;;;7.72;4.18;;;21.40;63.20;;;;;;5075295;28;20194;-76
2023/06/13 09:25:48;;;;;;;5.95;4.22;;;21.40;64.00;;;;;;5075122;28;20079;-76
2023/06/13 09:28:37;;;;;;;5.60;3.83;;;21.50;65.00;;;;;;5075314;28;20244;-76
2023/06/13 09:31:03;;;;;;;6.68;4.15;;;21.70;64.60;;;;;;5075328;28;20460;-76
2023/06/13 09:33:29;;;;;;;6.95;4.22;;;21.80;64.70;;;;;;5074968;28;20029;-76
2023/06/13 09:35:55;;;;;;;6.78;4.00;;;21.80;63.10;;;;;;5075120;28;20353;-76
2023/06/13 09:38:23;;;;;;;6.65;4.30;;;21.80;64.00;;;;;;5075324;28;20028;-76
2023/06/13 09:40:54;;;;;;;7.75;4.32;;;21.90;62.60;;;;;;5075070;28;20025;-76
2023/06/13 09:43:24;;;;;;;7.10;4.28;;;21.90;63.60;;;;;;5057227;28;20382;-76
2023/06/13 09:45:51;;;;;;;5.20;4.28;;;21.90;62.90;;;;;;5074760;28;20020;-76
2023/06/13 09:48:21;;;;;;;6.05;4.32;;;21.90;62.00;;;;;;5075434;28;20039;-76
2023/06/13 09:50:47;;;;;;;7.35;4.60;;;21.90;62.80;;;;;;5075128;28;20044;-76
2023/06/13 09:53:13;;;;;;;5.63;4.10;;;22.00;62.90;;;;;;5075005;28;20048;-76
2023/06/13 09:55:40;;;;;;;6.80;4.85;;;22.10;62.70;;;;;;5074826;28;20040;-76
2023/06/13 09:58:06;;;;;;;7.43;4.85;;;22.20;62.50;;;;;;5075251;28;20074;-76
2023/06/13 10:00:33;;;;;;;7.22;4.60;;;22.30;61.60;;;;;;5074749;28;20342;-75
2023/06/13 10:03:00;;;;;;;4.65;3.72;;;22.40;62.40;;;;;;5074731;28;20103;-76
2023/06/13 10:05:26;;;;;;;5.43;3.95;;;22.50;62.60;;;;;;5074767;28;20027;-74
2023/06/13 10:07:53;;;;;;;7.53;5.03;;;22.70;62.40;;;;;;5056940;28;20448;-75
2023/06/13 10:10:19;;;;;;;6.20;4.20;;;22.70;61.20;;;;;;5075208;28;20024;-75
2023/06/13 10:12:59;;;;;;;5.28;4.00;;;22.80;61.50;;;;;;5074615;28;20033;-75
2023/06/13 10:15:51;;;;;;;7.22;4.60;;;22.90;60.90;;;;;;5056843;28;20396;-75
2023/06/13 10:18:20;;;;;;;7.95;4.43;;;23.00;59.30;;;;;;5065706;28;20051;-75
2023/06/13 10:20:48;;;;;;;4.72;3.78;;;23.10;58.90;;;;;;5076005;28;20020;-75
2023/06/13 10:23:20;;;;;;;7.35;4.28;;;23.10;59.90;;;;;;5078313;28;20028;-75
2023/06/13 10:25:51;;;;;;;7.72;4.07;;;23.20;58.80;;;;;;5078223;28;20114;-75
2023/06/13 10:28:49;;;;;;;6.82;4.70;;;23.30;59.60;;;;;;5060639;28;20345;-75
2023/06/13 10:31:44;;;;;;;6.90;4.43;;;23.50;59.00;;;;;;5078395;28;20168;-75
2023/06/13 10:34:22;;;;;;;6.03;4.03;;;23.80;56.00;;;;;;5078192;28;20048;-75
2023/06/13 10:36:57;;;;;;;6.70;4.15;;;24.00;57.60;;;;;;5078574;28;20021;-76
2023/06/13 10:40:07;;;;;;;6.15;4.13;;;23.90;56.90;;;;;;5078021;28;20033;-75
2023/06/13 10:42:40;;;;;;;7.07;4.15;;;24.00;56.20;;;;;;4996804;28;20113;-75
2023/06/13 10:45:16;;;;;;;6.80;4.32;;;24.10;56.30;;;;;;4996820;28;20058;-75
2023/06/13 10:47:42;;;;;;;5.30;3.90;;;24.20;55.90;;;;;;4997034;28;20034;-75
2023/06/13 10:50:08;;;;;;;4.40;3.63;;;24.20;56.10;;;;;;4997323;28;20034;-75
2023/06/13 10:52:34;;;;;;;6.28;3.75;;;24.30;55.80;;;;;;4996683;28;20026;-75
2023/06/13 10:55:03;;;;;;;6.00;4.10;;;24.40;55.60;;;;;;4996499;28;20066;-75
2023/06/13 10:57:52;;;;;;;7.78;4.82;;;24.70;55.80;;;;;;4996707;28;20115;-75
2023/06/13 11:00:24;;;;;;;5.88;3.88;;;24.50;51.20;;;;;;4996678;28;20392;-75
2023/06/13 11:03:07;;;;;;;5.40;3.55;;;24.50;53.20;;;;;;4996575;28;20408;-75
2023/06/13 11:05:50;;;;;;;7.22;4.18;;;24.60;54.00;;;;;;4996785;28;20078;-75
2023/06/13 11:08:20;;;;;;;7.43;4.88;;;24.60;53.60;;;;;;4996501;28;20036;-76
2023/06/13 11:10:48;;;;;;;5.68;4.00;;;24.60;53.60;;;;;;4996434;28;20507;-75
2023/06/13 11:13:21;;;;;;;5.97;3.75;;;24.60;52.80;;;;;;4996483;28;20050;-75
2023/06/13 11:15:50;;;;;;;7.43;4.13;;;24.60;53.70;;;;;;4996302;28;20030;-76
2023/06/13 11:18:19;;;;;;;4.22;3.38;;;24.60;53.90;;;;;;5002234;28;20360;-75
2023/06/13 11:20:52;;;;;;;8.90;4.32;;;24.60;53.70;;;;;;5077542;28;20024;-75
2023/06/13 11:23:58;;;;;;;6.00;3.65;;;24.60;53.40;;;;;;5077244;28;20112;-75
2023/06/13 11:26:25;;;;;;;4.75;3.92;;;24.60;53.70;;;;;;4996141;28;20038;-75
2023/06/13 11:28:52;;;;;;;6.47;4.07;;;24.60;53.20;;;;;;4996074;28;20140;-75
2023/06/13 11:31:19;;;;;;;5.88;4.03;;;24.60;54.80;;;;;;4995981;28;20058;-75
2023/06/13 11:33:50;;;;;;;6.25;4.00;;;24.80;54.90;;;;;;4995961;28;20052;-75
2023/06/13 11:36:17;;;;;;;4.95;3.72;;;24.80;54.60;;;;;;4996006;28;20456;-75
2023/06/13 11:39:08;;;;;;;4.80;3.70;;;24.90;54.40;;;;;;4995919;28;20037;-75
2023/06/13 11:41:33;;;;;;;4.97;3.50;;;24.90;54.00;;;;;;4990597;28;20479;-75
2023/06/13 11:44:00;;;;;;;5.05;3.47;;;25.10;54.30;;;;;;4996058;28;20030;-75
2023/06/13 11:46:27;;;;;;;6.35;4.13;;;25.30;54.40;;;;;;4995628;28;20147;-75
2023/06/13 11:48:56;;;;;;;7.13;4.53;;;25.40;53.80;;;;;;4995775;28;20065;-75
2023/06/13 11:51:23;;;;;;;7.53;4.43;;;25.50;53.40;;;;;;4995640;28;20194;-75
2023/06/13 11:53:56;;;;;;;7.63;4.28;;;25.50;53.50;;;;;;4995804;28;20062;-75
2023/06/13 11:56:24;;;;;;;5.90;4.05;;;25.50;53.30;;;;;;4995516;28;20038;-74
2023/06/13 11:58:55;;;;;;;7.68;4.70;;;25.50;53.60;;;;;;4995514;28;20085;-74
2023/06/13 12:01:24;;;;;;;7.32;4.78;;;25.40;52.90;;;;;;5016561;28;20479;-75
2023/06/13 12:03:52;;;;;;;5.00;3.88;;;25.40;53.30;;;;;;5076583;28;20024;-75
2023/06/13 12:06:19;;;;;;;5.57;3.70;;;25.30;52.60;;;;;;5076587;28;20025;-75
2023/06/13 12:08:46;;;;;;;5.88;3.63;;;25.30;53.40;;;;;;5076561;28;20020;-75
2023/06/13 12:11:16;;;;;;;7.28;4.45;;;25.30;53.60;;;;;;5076523;28;20013;-75
2023/06/13 12:14:01;;;;;;;7.88;4.07;;;25.30;53.00;;;;;;5076203;28;20032;-75
2023/06/13 12:16:35;;;;;;;5.35;3.67;;;25.30;53.00;;;;;;5076369;28;20047;-75
2023/06/13 12:19:02;;;;;;;7.68;4.20;;;25.40;53.00;;;;;;5076422;28;20028;-75
2023/06/13 12:21:31;;;;;;;5.22;4.10;;;25.40;53.30;;;;;;5076349;28;20566;-75
2023/06/13 12:23:59;;;;;;;6.75;4.75;;;25.60;53.70;;;;;;5076492;28;20044;-75
2023/06/13 12:26:28;;;;;;;7.22;4.10;;;25.60;53.90;;;;;;5076174;28;20021;-76
2023/06/13 12:28:59;;;;;;;6.55;4.18;;;25.70;53.60;;;;;;5075871;28;20461;-76
2023/06/13 12:31:37;;;;;;;8.52;4.35;;;25.70;53.50;;;;;;5076151;28;20028;-75
2023/06/13 12:34:27;;;;;;;6.65;4.10;;;25.70;53.30;;;;;;5075596;28;20063;-75
2023/06/13 12:36:57;;;;;;;7.38;4.28;;;25.70;52.20;;;;;;5076356;28;20042;-75
2023/06/13 12:39:23;;;;;;;7.78;4.70;;;25.70;52.90;;;;;;5076299;28;20032;-75
2023/06/13 12:41:51;;;;;;;6.35;4.65;;;25.70;52.30;;;;;;5075705;28;20024;-75
2023/06/13 12:44:20;;;;;;;7.00;4.55;;;25.70;52.40;;;;;;5075304;28;20048;-75
2023/06/13 12:46:47;;;;;;;7.03;5.07;;;25.70;52.70;;;;;;5075843;28;20024;-75
2023/06/13 12:49:20;;;;;;;4.47;3.65;;;25.70;52.70;;;;;;5076106;28;20028;-75
2023/06/13 12:51:49;;;;;;;7.68;4.78;;;25.70;52.70;;;;;;5075795;28;20029;-75
2023/06/13 12:54:25;;;;;;;6.90;4.30;;;25.70;52.90;;;;;;5075777;28;20051;-75
2023/06/13 12:56:55;;;;;;;7.30;5.07;;;25.80;52.70;;;;;;5077698;28;20389;-75
2023/06/13 12:59:34;;;;;;;7.03;5.18;;;25.80;52.50;;;;;;5085410;28;20029;-75
2023/06/13 13:02:03;;;;;;;8.13;5.13;;;25.60;48.80;;;;;;5075637;28;20032;-75
2023/06/13 13:04:30;;;;;;;9.38;5.20;;;25.50;50.30;;;;;;5075762;28;20028;-76
2023/06/13 13:06:56;;;;;;;11.48;5.90;;;25.40;51.50;;;;;;5075327;28;20541;-75
2023/06/13 13:09:26;;;;;;;8.90;4.88;;;25.20;51.70;;;;;;5075217;28;20031;-76
2023/06/13 13:11:55;;;;;;;6.45;4.47;;;25.30;52.00;;;;;;5075536;28;20024;-75
2023/06/13 13:14:26;;;;;;;5.45;4.30;;;25.30;52.30;;;;;;5058245;28;20334;-76
2023/06/13 13:16:52;;;;;;;7.57;4.75;;;25.30;52.10;;;;;;5075492;28;20097;-75
2023/06/13 13:19:19;;;;;;;7.30;5.18;;;25.40;52.40;;;;;;5075436;28;20016;-75
2023/06/13 13:21:46;;;;;;;8.30;4.68;;;25.40;52.00;;;;;;5075154;28;20043;-75
2023/06/13 13:24:13;;;;;;;6.07;3.45;;;25.50;51.80;;;;;;5057603;28;20396;-75
2023/06/13 13:26:41;;;;;;;6.82;4.35;;;25.50;51.90;;;;;;5074999;28;20032;-75
2023/06/13 13:29:07;;;;;;;6.15;4.25;;;25.50;51.70;;;;;;5057989;28;20519;-75
2023/06/13 13:31:33;;;;;;;6.03;4.75;;;25.50;51.50;;;;;;5075579;28;20049;-75
2023/06/13 13:33:59;;;;;;;6.65;5.00;;;25.40;51.00;;;;;;5075034;28;20047;-75
2023/06/13 13:36:26;;;;;;;5.38;4.35;;;25.40;51.10;;;;;;5075631;28;20033;-75
2023/06/13 13:38:52;;;;;;;6.70;4.47;;;25.40;51.50;;;;;;5075249;28;20051;-75
2023/06/13 13:41:18;;;;;;;6.15;4.35;;;25.40;51.80;;;;;;5074989;28;20066;-75
2023/06/13 13:43:44;;;;;;;6.18;4.45;;;25.40;51.90;;;;;;5075129;28;20108;-75
2023/06/13 13:46:10;;;;;;;6.85;4.43;;;25.40;52.10;;;;;;5074837;28;20021;-75
2023/06/13 13:48:38;;;;;;;5.90;3.67;;;25.40;51.80;;;;;;5075136;28;20039;-76
2023/06/13 13:51:05;;;;;;;6.63;4.43;;;25.50;52.20;;;;;;5075020;28;20402;-75
2023/06/13 13:53:31;;;;;;;6.25;3.95;;;25.50;52.30;;;;;;5075124;28;20031;-75
2023/06/13 13:55:57;;;;;;;5.60;4.28;;;25.60;52.20;;;;;;5076308;28;20091;-76
2023/06/13 13:58:23;;;;;;;5.00;3.65;;;25.60;52.20;;;;;;5079137;28;20056;-75
2023/06/13 14:00:49;;;;;;;6.18;3.92;;;25.70;52.20;;;;;;5079360;28;20016;-75
2023/06/13 14:03:15;;;;;;;4.90;3.80;;;25.80;52.00;;;;;;5078736;28;20108;-75
2023/06/13 14:05:41;;;;;;;4.88;3.95;;;25.90;51.90;;;;;;5060916;28;20081;-75
2023/06/13 14:08:07;;;;;;;6.93;4.00;;;25.90;52.00;;;;;;5078664;28;20441;-75
2023/06/13 14:10:33;;;;;;;5.57;4.07;;;26.00;51.80;;;;;;5078868;28;20017;-75
2023/06/13 14:13:00;;;;;;;6.25;4.50;;;26.00;51.30;;;;;;5060894;28;20048;-76
2023/06/13 14:15:26;;;;;;;5.65;3.95;;;25.90;51.40;;;;;;5078692;28;20102;-75
2023/06/13 14:17:52;;;;;;;5.90;4.38;;;25.90;51.70;;;;;;5078728;28;20032;-75
2023/06/13 14:20:19;;;;;;;6.03;4.40;;;26.00;51.40;;;;;;5078371;28;20355;-75
2023/06/13 14:22:45;;;;;;;5.45;4.10;;;26.00;51.10;;;;;;5061556;28;20025;-75
2023/06/13 14:25:11;;;;;;;6.13;4.38;;;26.00;50.80;;;;;;5078106;28;20036;-76
2023/06/13 14:27:37;;;;;;;4.97;3.67;;;26.00;50.80;;;;;;5078529;28;20029;-75
2023/06/13 14:30:05;;;;;;;8.45;5.03;;;26.00;50.50;;;;;;5060815;28;20053;-75
2023/06/13 14:32:31;;;;;;;5.95;3.78;;;26.00;50.60;;;;;;5078209;28;20040;-76
2023/06/13 14:34:57;;;;;;;6.47;4.25;;;26.00;50.60;;;;;;5077889;28;20048;-76
2023/06/13 14:37:24;;;;;;;7.22;3.90;;;26.10;50.80;;;;;;5078342;28;20025;-75
2023/06/13 14:39:50;;;;;;;6.53;4.25;;;26.10;50.90;;;;;;5077981;28;20036;-75
2023/06/13 14:42:16;;;;;;;5.30;4.13;;;26.10;50.70;;;;;;5077936;28;20029;-75
2023/06/13 14:44:43;;;;;;;9.20;4.40;;;26.00;50.60;;;;;;5078088;28;20074;-75
2023/06/13 14:47:09;;;;;;;5.25;3.88;;;26.00;50.50;;;;;;5078135;28;20099;-75
2023/06/13 14:49:35;;;;;;;6.43;4.32;;;26.00;50.40;;;;;;5078174;28;20016;-76
2023/06/13 14:52:02;;;;;;;6.60;4.20;;;26.00;50.40;;;;;;5078315;28;20029;-76
2023/06/13 14:54:29;;;;;;;6.70;4.70;;;26.00;50.60;;;;;;5077724;28;20032;-75
2023/06/13 14:56:55;;;;;;;5.85;4.10;;;26.00;50.30;;;;;;5077923;28;20029;-75
2023/06/13 14:59:21;;;;;;;5.35;3.97;;;26.00;50.10;;;;;;5077924;28;20123;-76
2023/06/13 15:01:47;;;;;;;5.30;3.95;;;26.10;50.30;;;;;;5077643;28;20438;-75
2023/06/13 15:04:13;;;;;;;7.80;4.25;;;26.20;50.10;;;;;;5078084;28;20311;-75
2023/06/13 15:06:39;;;;;;;4.60;3.35;;;26.20;49.70;;;;;;5077578;28;20025;-75
2023/06/13 15:09:05;;;;;;;5.65;4.00;;;26.30;49.70;;;;;;5078055;28;20044;-75
2023/06/13 15:11:31;;;;;;;6.15;4.35;;;26.40;49.50;;;;;;5077453;28;20099;-76
2023/06/13 15:13:57;;;;;;;5.05;3.97;;;26.40;49.30;;;;;;5077973;28;20400;-76
2023/06/13 15:16:23;;;;;;;6.30;4.10;;;26.40;49.10;;;;;;5077594;28;20141;-76
2023/06/13 15:18:49;;;;;;;8.00;3.70;;;26.40;48.70;;;;;;5077378;28;20028;-76
2023/06/13 15:21:15;;;;;;;5.03;3.80;;;26.30;48.80;;;;;;5077829;28;20481;-76
2023/06/13 15:23:42;;;;;;;5.18;3.80;;;26.30;48.90;;;;;;5077188;28;20025;-76
2023/06/13 15:26:08;;;;;;;4.28;3.65;;;26.30;48.50;;;;;;5077367;28;20029;-76
2023/06/13 15:28:34;;;;;;;6.45;3.92;;;26.20;48.20;;;;;;5077757;28;20029;-76
2023/06/13 15:31:00;;;;;;;5.00;3.70;;;26.20;48.00;;;;;;5077169;28;20100;-76
2023/06/13 15:33:32;;;;;;;5.70;4.07;;;26.20;48.40;;;;;;5077200;28;20120;-76
2023/06/13 15:35:58;;;;;;;5.65;3.65;;;26.30;48.50;;;;;;5076925;28;20107;-76
2023/06/13 15:38:25;;;;;;;4.43;3.42;;;26.20;48.30;;;;;;5076939;28;20100;-76
2023/06/13 15:40:51;;;;;;;4.88;3.75;;;26.20;48.30;;;;;;5076984;28;20516;-76
2023/06/13 15:43:17;;;;;;;4.22;3.30;;;26.10;48.20;;;;;;5059252;28;20032;-76
2023/06/13 15:45:43;;;;;;;4.65;3.30;;;26.00;48.30;;;;;;5076731;28;20054;-76
2023/06/13 15:48:09;;;;;;;3.75;3.00;;;26.00;48.40;;;;;;5076824;28;20024;-76
2023/06/13 15:50:35;;;;;;;4.20;2.78;;;26.10;48.50;;;;;;5077303;28;20028;-76
2023/06/13 15:53:01;;;;;;;4.28;3.33;;;26.20;48.50;;;;;;5076958;28;20023;-76
2023/06/13 15:55:27;;;;;;;5.20;3.60;;;26.20;47.70;;;;;;5076853;28;20054;-76
2023/06/13 15:57:53;;;;;;;4.40;3.30;;;26.20;48.00;;;;;;5076545;28;20025;-76
2023/06/13 16:00:21;;;;;;;7.07;4.00;;;26.30;48.00;;;;;;5077114;28;20465;-76
2023/06/13 16:02:48;;;;;;;4.30;3.28;;;26.20;47.70;;;;;;5076775;28;20028;-76
2023/06/13 16:05:14;;;;;;;5.20;3.30;;;26.10;47.70;;;;;;5076514;28;20106;-76
2023/06/13 16:07:40;;;;;;;4.32;3.30;;;26.10;47.80;;;;;;5076681;28;20040;-76
2023/06/13 16:10:07;;;;;;;3.42;3.13;;;26.10;47.70;;;;;;5077015;28;20028;-76
2023/06/13 16:12:33;;;;;;;4.35;3.17;;;26.00;47.90;;;;;;5076297;28;20020;-76
2023/06/13 16:14:59;;;;;;;3.92;2.95;;;26.00;47.90;;;;;;5076170;28;20020;-76
2023/06/13 16:17:25;;;;;;;3.70;2.60;;;26.00;47.90;;;;;;5076294;28;20055;-76
2023/06/13 16:19:51;;;;;;;3.65;2.80;;;26.00;48.20;;;;;;5075534;28;20056;-76
2023/06/13 16:22:17;;;;;;;4.03;3.03;;;25.90;48.40;;;;;;5076612;28;20021;-76
2023/06/13 16:24:43;;;;;;;3.67;2.88;;;25.90;48.50;;;;;;5075893;28;20442;-76
2023/06/13 16:27:10;;;;;;;4.00;3.00;;;25.90;48.50;;;;;;5076001;28;20024;-76
2023/06/13 16:29:36;;;;;;;4.03;3.03;;;25.90;48.60;;;;;;5075917;28;20020;-76
2023/06/13 16:32:03;;;;;;;4.40;3.15;;;25.90;48.60;;;;;;5075879;28;20020;-76
2023/06/13 16:34:29;;;;;;;4.22;2.83;;;25.90;48.80;;;;;;5075571;28;20076;-76
2023/06/13 16:36:55;;;;;;;5.68;3.50;;;25.80;48.80;;;;;;5075759;28;20465;-76
2023/06/13 16:39:21;;;;;;;5.78;3.45;;;25.80;48.90;;;;;;5076283;28;20409;-76
2023/06/13 16:41:47;;;;;;;4.18;3.17;;;25.80;49.10;;;;;;5075752;28;20020;-76
2023/06/13 16:44:13;;;;;;;3.65;3.15;;;25.70;49.20;;;;;;5075625;28;20028;-76
2023/06/13 16:46:39;;;;;;;6.25;3.75;;;25.70;49.30;;;;;;5075878;28;20043;-76
2023/06/13 16:49:05;;;;;;;4.38;3.40;;;25.70;49.60;;;;;;5075625;28;20031;-76
2023/06/13 16:51:31;;;;;;;4.07;3.40;;;25.70;49.50;;;;;;5076094;28;20024;-76
2023/06/13 16:53:57;;;;;;;5.18;3.80;;;25.70;49.60;;;;;;5076007;28;20055;-76
2023/06/13 16:56:23;;;;;;;3.78;3.20;;;25.60;49.70;;;;;;5057937;28;20342;-76
2023/06/13 16:58:50;;;;;;;6.70;4.00;;;25.60;49.90;;;;;;5075440;28;20028;-76
2023/06/13 17:01:16;;;;;;;4.57;3.38;;;25.50;49.80;;;;;;5075415;28;20382;-76
2023/06/13 17:03:42;;;;;;;4.32;3.47;;;25.40;50.00;;;;;;5075218;28;20048;-76
2023/06/13 17:06:08;;;;;;;5.65;3.67;;;25.40;50.10;;;;;;5075751;28;20054;-76
2023/06/13 17:08:34;;;;;;;4.65;3.60;;;25.40;50.30;;;;;;5075311;28;20411;-76
2023/06/13 17:11:00;;;;;;;4.00;3.30;;;25.40;50.40;;;;;;5075239;28;20107;-76
2023/06/13 17:13:26;;;;;;;6.53;4.15;;;25.40;50.50;;;;;;5075274;28;20477;-76
2023/06/13 17:15:52;;;;;;;5.60;3.90;;;25.30;50.60;;;;;;5075178;28;20028;-76
2023/06/13 17:18:18;;;;;;;7.25;3.95;;;25.20;50.70;;;;;;5075242;28;20024;-76
2023/06/13 17:20:49;;;;;;;4.35;3.60;;;25.20;50.90;;;;;;5075702;28;20112;-76
2023/06/13 17:23:15;;;;;;;4.25;3.05;;;25.20;50.90;;;;;;5075143;28;20036;-75
2023/06/13 17:25:41;;;;;;;5.10;3.88;;;25.10;51.00;;;;;;5075030;28;20107;-76
2023/06/13 17:28:07;;;;;;;6.07;3.80;;;25.10;51.10;;;;;;5075359;28;20021;-76
2023/06/13 17:30:33;;;;;;;5.10;3.95;;;25.10;51.20;;;;;;5075427;28;20496;-76
2023/06/13 17:32:59;;;;;;;8.15;3.85;;;25.10;51.40;;;;;;5075315;28;20055;-76
2023/06/13 17:35:25;;;;;;;4.65;3.75;;;25.00;51.40;;;;;;5074771;28;20045;-77
2023/06/13 17:37:51;;;;;;;4.90;3.85;;;25.00;51.40;;;;;;5074971;28;20035;-76
2023/06/13 17:40:17;;;;;;;8.07;4.47;;;25.00;51.50;;;;;;5075019;28;20020;-76
2023/06/13 17:42:44;;;;;;;7.35;4.63;;;24.90;51.60;;;;;;5074887;28;20039;-75
2023/06/13 17:45:10;;;;;;;4.85;3.80;;;24.90;51.90;;;;;;5074745;28;20052;-75
2023/06/13 17:47:38;;;;;;;4.80;4.05;;;24.80;51.80;;;;;;5075092;28;20052;-74
2023/06/13 17:50:04;;;;;;;4.45;3.22;;;24.80;52.20;;;;;;5075160;28;20025;-73
2023/06/13 17:52:30;;;;;;;7.55;3.70;;;24.70;52.30;;;;;;5075123;28;20503;-72
2023/06/13 17:54:56;;;;;;;5.20;3.25;;;24.70;52.40;;;;;;5074424;28;20369;-73
2023/06/13 17:57:26;;;;;;;5.13;3.05;;;24.70;52.50;;;;;;5074989;28;20036;-73
2023/06/13 17:59:52;;;;;;;4.97;3.35;;;24.70;52.60;;;;;;5075283;28;20031;-77
2023/06/13 18:02:18;;;;;;;4.70;3.28;;;24.60;52.60;;;;;;5075019;28;20020;-77
2023/06/13 18:04:44;;;;;;;4.15;2.80;;;24.50;52.50;;;;;;5075034;28;20532;-75
2023/06/13 18:07:11;;;;;;;3.88;2.72;;;24.40;52.50;;;;;;5074773;28;20021;-76
2023/06/13 18:09:37;;;;;;;3.80;2.80;;;24.40;52.50;;;;;;5074724;28;20075;-77
2023/06/13 18:12:04;;;;;;;2.95;2.70;;;24.40;52.50;;;;;;5074677;28;20032;-77
2023/06/13 18:14:30;;;;;;;3.63;2.80;;;24.40;52.70;;;;;;5074561;28;20078;-77
2023/06/13 18:16:56;;;;;;;3.80;2.80;;;24.40;52.60;;;;;;5074520;28;20037;-77
2023/06/13 18:19:22;;;;;;;3.65;3.13;;;24.30;53.20;;;;;;5074460;28;20027;-77
2023/06/13 18:21:48;;;;;;;4.03;2.97;;;24.30;53.80;;;;;;5074443;28;20352;-77
2023/06/13 18:24:15;;;;;;;5.55;3.40;;;24.30;54.30;;;;;;5074996;28;20028;-76